UAL459 KPDX-KDEN
Flight info
| Callsign | UAL459 |
|---|---|
| Flight time | 1h 48m |
| Altitude | 37000 |
| Route | WHAMY5 IMB PIH MJANE FLATI5 |
| Aircraft | A21N/M-SDE3FGHIRWY/LB1 |
Departure
| Time | 2026-05-05 23:40 |
|---|---|
| Airport | Portland International Airport (KPDX) |
Arrival
| Time | 2026-05-06 01:28 |
|---|---|
| Airport | Denver International Airport (KDEN) |
| Time | Latitude | Longitude | Altitude | Speed | Heading |
|---|---|---|---|---|---|
| 2026-05-05 23:20 | 45.59032 | -122.59158 | 31 ft | 0 kts | 208° |
| 2026-05-05 23:30 | 45.59036 | -122.59154 | 31 ft | 3 kts | 208° |
| 2026-05-05 23:30 | 45.59053 | -122.59141 | 31 ft | 3 kts | 208° |
| 2026-05-05 23:31 | 45.59069 | -122.59129 | 29 ft | 3 kts | 213° |
| 2026-05-05 23:31 | 45.59083 | -122.59113 | 30 ft | 3 kts | 188° |
| 2026-05-05 23:31 | 45.59100 | -122.59117 | 31 ft | 3 kts | 130° |
| 2026-05-05 23:31 | 45.59102 | -122.59119 | 31 ft | 0 kts | 121° |
| 2026-05-05 23:33 | 45.59101 | -122.59117 | 31 ft | 1 kts | 121° |
| 2026-05-05 23:33 | 45.59094 | -122.59099 | 30 ft | 3 kts | 121° |
| 2026-05-05 23:33 | 45.59075 | -122.59055 | 31 ft | 9 kts | 121° |
| 2026-05-05 23:33 | 45.59038 | -122.58960 | 30 ft | 12 kts | 116° |
| 2026-05-05 23:34 | 45.59032 | -122.58821 | 32 ft | 17 kts | 89° |
| 2026-05-05 23:34 | 45.58997 | -122.58637 | 31 ft | 21 kts | 119° |
| 2026-05-05 23:34 | 45.58925 | -122.58454 | 31 ft | 22 kts | 119° |
| 2026-05-05 23:34 | 45.58874 | -122.58324 | 31 ft | 23 kts | 119° |
| 2026-05-05 23:35 | 45.58759 | -122.58032 | 32 ft | 43 kts | 119° |
| 2026-05-05 23:35 | 45.58626 | -122.57692 | 31 ft | 38 kts | 119° |
| 2026-05-05 23:35 | 45.58499 | -122.57362 | 31 ft | 37 kts | 118° |
| 2026-05-05 23:35 | 45.58390 | -122.57085 | 31 ft | 23 kts | 120° |
| 2026-05-05 23:36 | 45.58321 | -122.56911 | 32 ft | 11 kts | 119° |
| 2026-05-05 23:36 | 45.58315 | -122.56896 | 32 ft | 0 kts | 119° |
| 2026-05-05 23:37 | 45.58315 | -122.56895 | 30 ft | 1 kts | 119° |
| 2026-05-05 23:37 | 45.58299 | -122.56855 | 30 ft | 11 kts | 119° |
| 2026-05-05 23:37 | 45.58279 | -122.56737 | 30 ft | 13 kts | 68° |
| 2026-05-05 23:37 | 45.58361 | -122.56710 | 31 ft | 14 kts | 328° |
| 2026-05-05 23:38 | 45.58407 | -122.56808 | 31 ft | 0 kts | 299° |
| 2026-05-05 23:39 | 45.58408 | -122.56811 | 31 ft | 1 kts | 299° |
| 2026-05-05 23:39 | 45.58437 | -122.56881 | 30 ft | 30 kts | 300° |
| 2026-05-05 23:39 | 45.58671 | -122.57482 | 32 ft | 106 kts | 299° |
| 2026-05-05 23:40 | 45.59131 | -122.58648 | 101 ft | 155 kts | 300° |
| 2026-05-05 23:40 | 45.59613 | -122.59929 | 913 ft | 146 kts | 297° |
| 2026-05-05 23:40 | 45.60081 | -122.61268 | 1576 ft | 154 kts | 298° |
| 2026-05-05 23:40 | 45.60579 | -122.62675 | 2167 ft | 167 kts | 297° |
| 2026-05-05 23:41 | 45.61118 | -122.64209 | 2626 ft | 180 kts | 297° |
| 2026-05-05 23:41 | 45.61536 | -122.65978 | 2981 ft | 198 kts | 285° |
| 2026-05-05 23:41 | 45.62014 | -122.67898 | 3263 ft | 216 kts | 300° |
| 2026-05-05 23:41 | 45.62807 | -122.69898 | 3431 ft | 246 kts | 301° |
| 2026-05-05 23:42 | 45.63700 | -122.72090 | 3968 ft | 260 kts | 301° |
| 2026-05-05 23:42 | 45.64609 | -122.74361 | 4742 ft | 266 kts | 301° |
| 2026-05-05 23:42 | 45.65517 | -122.76691 | 5517 ft | 270 kts | 300° |
| 2026-05-05 23:42 | 45.66360 | -122.79074 | 6255 ft | 275 kts | 291° |
| 2026-05-05 23:43 | 45.66834 | -122.81738 | 6973 ft | 279 kts | 277° |
| 2026-05-05 23:43 | 45.66808 | -122.84567 | 7706 ft | 284 kts | 261° |
| 2026-05-05 23:43 | 45.66304 | -122.87309 | 8458 ft | 288 kts | 252° |
| 2026-05-05 23:43 | 45.65355 | -122.89832 | 9187 ft | 292 kts | 229° |
| 2026-05-05 23:44 | 45.63758 | -122.91643 | 9915 ft | 298 kts | 206° |
| 2026-05-05 23:44 | 45.61749 | -122.92486 | 10384 ft | 311 kts | 184° |
| 2026-05-05 23:44 | 45.59549 | -122.92043 | 10565 ft | 333 kts | 157° |
| 2026-05-05 23:44 | 45.57606 | -122.90130 | 10730 ft | 351 kts | 130° |
| 2026-05-05 23:45 | 45.56424 | -122.87068 | 11160 ft | 358 kts | 107° |
| 2026-05-05 23:45 | 45.55625 | -122.83671 | 11770 ft | 363 kts | 108° |
| 2026-05-05 23:45 | 45.54725 | -122.80281 | 12435 ft | 368 kts | 110° |
| 2026-05-05 23:45 | 45.53761 | -122.76879 | 13105 ft | 372 kts | 110° |
| 2026-05-05 23:46 | 45.52771 | -122.73447 | 13773 ft | 376 kts | 110° |
| 2026-05-05 23:46 | 45.51780 | -122.69983 | 14382 ft | 379 kts | 109° |
| 2026-05-05 23:46 | 45.50792 | -122.66474 | 15013 ft | 382 kts | 109° |
| 2026-05-05 23:46 | 45.49811 | -122.62940 | 15643 ft | 385 kts | 109° |
| 2026-05-05 23:47 | 45.48834 | -122.59379 | 16287 ft | 387 kts | 108° |
| 2026-05-05 23:47 | 45.47866 | -122.55830 | 16922 ft | 390 kts | 108° |
| 2026-05-05 23:47 | 45.46880 | -122.52222 | 17553 ft | 392 kts | 108° |
| 2026-05-05 23:47 | 45.45877 | -122.48576 | 18187 ft | 395 kts | 108° |
| 2026-05-05 23:48 | 45.44870 | -122.44927 | 18732 ft | 398 kts | 108° |
| 2026-05-05 23:48 | 45.43850 | -122.41242 | 19248 ft | 401 kts | 108° |
| 2026-05-05 23:48 | 45.42821 | -122.37527 | 19763 ft | 405 kts | 108° |
| 2026-05-05 23:48 | 45.41782 | -122.33784 | 20306 ft | 408 kts | 108° |
| 2026-05-05 23:49 | 45.40732 | -122.30005 | 20815 ft | 412 kts | 108° |
| 2026-05-05 23:49 | 45.39673 | -122.26198 | 21322 ft | 415 kts | 108° |
| 2026-05-05 23:49 | 45.38605 | -122.22361 | 21815 ft | 419 kts | 108° |
| 2026-05-05 23:49 | 45.37526 | -122.18496 | 22294 ft | 422 kts | 108° |
| 2026-05-05 23:50 | 45.36436 | -122.14591 | 22749 ft | 426 kts | 108° |
| 2026-05-05 23:50 | 45.35337 | -122.10661 | 23204 ft | 429 kts | 108° |
| 2026-05-05 23:50 | 45.34225 | -122.06700 | 23639 ft | 433 kts | 108° |
| 2026-05-05 23:50 | 45.33102 | -122.02709 | 24014 ft | 436 kts | 108° |
| 2026-05-05 23:51 | 45.31972 | -121.98695 | 24397 ft | 438 kts | 108° |
| 2026-05-05 23:51 | 45.30836 | -121.94664 | 24776 ft | 441 kts | 108° |
| 2026-05-05 23:51 | 45.29688 | -121.90601 | 25142 ft | 444 kts | 108° |
| 2026-05-05 23:51 | 45.28535 | -121.86526 | 25531 ft | 446 kts | 108° |
| 2026-05-05 23:52 | 45.27371 | -121.82420 | 25891 ft | 449 kts | 108° |
| 2026-05-05 23:52 | 45.26199 | -121.78299 | 26270 ft | 452 kts | 108° |
| 2026-05-05 23:52 | 45.25019 | -121.74154 | 26636 ft | 454 kts | 108° |
| 2026-05-05 23:52 | 45.23829 | -121.69980 | 26995 ft | 457 kts | 108° |
| 2026-05-05 23:53 | 45.22637 | -121.65795 | 27356 ft | 459 kts | 108° |
| 2026-05-05 23:53 | 45.21438 | -121.61589 | 27705 ft | 462 kts | 108° |
| 2026-05-05 23:53 | 45.20226 | -121.57355 | 28021 ft | 464 kts | 108° |
| 2026-05-05 23:53 | 45.19005 | -121.53098 | 28348 ft | 467 kts | 108° |
| 2026-05-05 23:54 | 45.17777 | -121.48826 | 28691 ft | 469 kts | 108° |
| 2026-05-05 23:54 | 45.16541 | -121.44528 | 29034 ft | 472 kts | 108° |
| 2026-05-05 23:54 | 45.15297 | -121.40211 | 29379 ft | 474 kts | 108° |
| 2026-05-05 23:54 | 45.14048 | -121.35881 | 29717 ft | 476 kts | 108° |
| 2026-05-05 23:55 | 45.12793 | -121.31541 | 30152 ft | 476 kts | 108° |
| 2026-05-05 23:55 | 45.11533 | -121.27207 | 30522 ft | 475 kts | 108° |
| 2026-05-05 23:55 | 45.10273 | -121.22890 | 30898 ft | 474 kts | 108° |
| 2026-05-05 23:55 | 45.09013 | -121.18574 | 31287 ft | 473 kts | 108° |
| 2026-05-05 23:56 | 45.07759 | -121.14274 | 31667 ft | 472 kts | 108° |
| 2026-05-05 23:56 | 45.06507 | -121.09976 | 32071 ft | 471 kts | 108° |
| 2026-05-05 23:56 | 45.05260 | -121.05692 | 32459 ft | 470 kts | 108° |
| 2026-05-05 23:56 | 45.04013 | -121.01417 | 32824 ft | 470 kts | 108° |
| 2026-05-05 23:57 | 45.02763 | -120.97148 | 33197 ft | 469 kts | 108° |
| 2026-05-05 23:57 | 45.01514 | -120.92885 | 33575 ft | 469 kts | 108° |
| 2026-05-05 23:57 | 45.00265 | -120.88640 | 33966 ft | 468 kts | 107° |
| 2026-05-05 23:57 | 44.99013 | -120.84398 | 34298 ft | 467 kts | 107° |
| 2026-05-05 23:58 | 44.97763 | -120.80166 | 34602 ft | 467 kts | 107° |
| 2026-05-05 23:58 | 44.96509 | -120.75927 | 34919 ft | 466 kts | 107° |
| 2026-05-05 23:58 | 44.95256 | -120.71706 | 35242 ft | 465 kts | 107° |
| 2026-05-05 23:58 | 44.94004 | -120.67499 | 35530 ft | 465 kts | 107° |
| 2026-05-05 23:59 | 44.92751 | -120.63295 | 35825 ft | 465 kts | 107° |
| 2026-05-05 23:59 | 44.91495 | -120.59087 | 36129 ft | 464 kts | 107° |
| 2026-05-05 23:59 | 44.90244 | -120.54893 | 36421 ft | 464 kts | 107° |
| 2026-05-05 23:59 | 44.88993 | -120.50701 | 36698 ft | 463 kts | 107° |
| 2026-05-06 00:00 | 44.87741 | -120.46508 | 36906 ft | 464 kts | 107° |
| 2026-05-06 00:00 | 44.86489 | -120.42326 | 36949 ft | 461 kts | 107° |
| 2026-05-06 00:00 | 44.83988 | -120.34023 | 36948 ft | 459 kts | 107° |
| 2026-05-06 00:01 | 44.81497 | -120.25752 | 36948 ft | 458 kts | 107° |
| 2026-05-06 00:01 | 44.79004 | -120.17491 | 36953 ft | 459 kts | 106° |
| 2026-05-06 00:02 | 44.76492 | -120.09216 | 36941 ft | 460 kts | 106° |
| 2026-05-06 00:02 | 44.73963 | -120.00935 | 36947 ft | 461 kts | 106° |
| 2026-05-06 00:03 | 44.71434 | -119.92636 | 36962 ft | 462 kts | 107° |
| 2026-05-06 00:03 | 44.68736 | -119.83811 | 36960 ft | 462 kts | 107° |
| 2026-05-06 00:04 | 44.63965 | -119.67133 | 36963 ft | 456 kts | 100° |
| 2026-05-06 00:04 | 44.60307 | -119.50122 | 36975 ft | 455 kts | 99° |
| 2026-05-06 00:05 | 44.54754 | -119.24584 | 36962 ft | 456 kts | 100° |
| 2026-05-06 00:06 | 44.51011 | -119.07571 | 36953 ft | 456 kts | 100° |
| 2026-05-06 00:06 | 44.47879 | -118.93441 | 36971 ft | 457 kts | 100° |
| 2026-05-06 00:07 | 44.43432 | -118.73582 | 36986 ft | 458 kts | 100° |
| 2026-05-06 00:07 | 44.40262 | -118.59447 | 36974 ft | 457 kts | 100° |
| 2026-05-06 00:08 | 44.36423 | -118.42492 | 36955 ft | 457 kts | 100° |
| 2026-05-06 00:08 | 44.32579 | -118.25673 | 36924 ft | 456 kts | 100° |
| 2026-05-06 00:09 | 44.28692 | -118.08782 | 36917 ft | 458 kts | 100° |
| 2026-05-06 00:09 | 44.24733 | -117.91757 | 36934 ft | 458 kts | 100° |
| 2026-05-06 00:10 | 44.20776 | -117.74841 | 36928 ft | 459 kts | 100° |
| 2026-05-06 00:10 | 44.16795 | -117.57960 | 36899 ft | 459 kts | 100° |
| 2026-05-06 00:11 | 44.12791 | -117.41091 | 36890 ft | 458 kts | 101° |
| 2026-05-06 00:11 | 44.08801 | -117.24376 | 36894 ft | 458 kts | 101° |
| 2026-05-06 00:12 | 44.04721 | -117.07469 | 36879 ft | 459 kts | 101° |
| 2026-05-06 00:12 | 44.00639 | -116.90676 | 36888 ft | 458 kts | 101° |
| 2026-05-06 00:13 | 43.96540 | -116.73909 | 36893 ft | 458 kts | 101° |
| 2026-05-06 00:13 | 43.92443 | -116.57239 | 36865 ft | 459 kts | 101° |
| 2026-05-06 00:14 | 43.88271 | -116.40461 | 36859 ft | 460 kts | 101° |
| 2026-05-06 00:14 | 43.84084 | -116.23685 | 36848 ft | 460 kts | 101° |
| 2026-05-06 00:15 | 43.79863 | -116.06943 | 36844 ft | 460 kts | 102° |
| 2026-05-06 00:15 | 43.75614 | -115.90233 | 36828 ft | 460 kts | 102° |
| 2026-05-06 00:16 | 43.71342 | -115.73517 | 36825 ft | 461 kts | 101° |
| 2026-05-06 00:16 | 43.67049 | -115.56816 | 36784 ft | 459 kts | 101° |
| 2026-05-06 00:17 | 43.62742 | -115.40170 | 36792 ft | 461 kts | 101° |
| 2026-05-06 00:17 | 43.58382 | -115.23481 | 36805 ft | 462 kts | 101° |
| 2026-05-06 00:18 | 43.54004 | -115.06802 | 36775 ft | 462 kts | 101° |
| 2026-05-06 00:18 | 43.49624 | -114.90218 | 36780 ft | 461 kts | 101° |
| 2026-05-06 00:19 | 43.45180 | -114.73579 | 36784 ft | 463 kts | 101° |
| 2026-05-06 00:19 | 43.40698 | -114.56927 | 36823 ft | 465 kts | 101° |
| 2026-05-06 00:20 | 43.36193 | -114.40189 | 36800 ft | 467 kts | 101° |
| 2026-05-06 00:20 | 43.31639 | -114.23483 | 36862 ft | 467 kts | 102° |
| 2026-05-06 00:21 | 43.27073 | -114.06777 | 36845 ft | 467 kts | 102° |
| 2026-05-06 00:21 | 43.22476 | -113.90103 | 36736 ft | 467 kts | 102° |
| 2026-05-06 00:22 | 43.17845 | -113.73463 | 36752 ft | 468 kts | 103° |
| 2026-05-06 00:22 | 43.13260 | -113.57009 | 36764 ft | 469 kts | 103° |
| 2026-05-06 00:23 | 43.10911 | -113.48649 | 36754 ft | 470 kts | 103° |
| 2026-05-06 00:23 | 43.08551 | -113.40293 | 36742 ft | 472 kts | 103° |
| 2026-05-06 00:24 | 43.06175 | -113.31910 | 36753 ft | 473 kts | 103° |
| 2026-05-06 00:24 | 43.03794 | -113.23512 | 36768 ft | 474 kts | 103° |
| 2026-05-06 00:25 | 43.01404 | -113.15112 | 36770 ft | 474 kts | 103° |
| 2026-05-06 00:25 | 42.99003 | -113.06710 | 36766 ft | 474 kts | 104° |
| 2026-05-06 00:26 | 42.96600 | -112.98327 | 36830 ft | 474 kts | 104° |
| 2026-05-06 00:26 | 42.94195 | -112.89962 | 36850 ft | 473 kts | 105° |
| 2026-05-06 00:27 | 42.91781 | -112.81606 | 36865 ft | 473 kts | 105° |
| 2026-05-06 00:27 | 42.89373 | -112.73248 | 36885 ft | 472 kts | 104° |
| 2026-05-06 00:28 | 42.86956 | -112.64915 | 36799 ft | 472 kts | 105° |
| 2026-05-06 00:28 | 42.84389 | -112.56662 | 36808 ft | 473 kts | 107° |
| 2026-05-06 00:29 | 42.81691 | -112.48458 | 36797 ft | 475 kts | 108° |
| 2026-05-06 00:29 | 42.78991 | -112.40243 | 36786 ft | 475 kts | 108° |
| 2026-05-06 00:30 | 42.76319 | -112.32000 | 36783 ft | 476 kts | 107° |
| 2026-05-06 00:30 | 42.73665 | -112.23782 | 36801 ft | 477 kts | 107° |
| 2026-05-06 00:31 | 42.70985 | -112.15530 | 36815 ft | 477 kts | 108° |
| 2026-05-06 00:31 | 42.68288 | -112.07289 | 36833 ft | 477 kts | 108° |
| 2026-05-06 00:32 | 42.65584 | -111.99042 | 36826 ft | 478 kts | 108° |
| 2026-05-06 00:32 | 42.62868 | -111.90789 | 36821 ft | 478 kts | 108° |
| 2026-05-06 00:33 | 42.60140 | -111.82534 | 36827 ft | 479 kts | 108° |
| 2026-05-06 00:33 | 42.57420 | -111.74279 | 36842 ft | 479 kts | 108° |
| 2026-05-06 00:34 | 42.54686 | -111.66012 | 36825 ft | 480 kts | 109° |
| 2026-05-06 00:34 | 42.51937 | -111.57759 | 36806 ft | 480 kts | 109° |
| 2026-05-06 00:35 | 42.49169 | -111.49489 | 36803 ft | 481 kts | 109° |
| 2026-05-06 00:35 | 42.46403 | -111.41228 | 36796 ft | 481 kts | 109° |
| 2026-05-06 00:36 | 42.43635 | -111.32964 | 36800 ft | 482 kts | 109° |
| 2026-05-06 00:36 | 42.40860 | -111.24709 | 36796 ft | 482 kts | 109° |
| 2026-05-06 00:37 | 42.38077 | -111.16452 | 36775 ft | 482 kts | 109° |
| 2026-05-06 00:37 | 42.35286 | -111.08208 | 36792 ft | 483 kts | 109° |
| 2026-05-06 00:38 | 42.32471 | -110.99950 | 36779 ft | 484 kts | 109° |
| 2026-05-06 00:38 | 42.29626 | -110.91702 | 36774 ft | 485 kts | 110° |
| 2026-05-06 00:39 | 42.26801 | -110.83433 | 36767 ft | 484 kts | 110° |
| 2026-05-06 00:39 | 42.24013 | -110.75216 | 36792 ft | 484 kts | 110° |
| 2026-05-06 00:40 | 42.21647 | -110.68296 | 36774 ft | 485 kts | 110° |
| 2026-05-06 00:40 | 42.18333 | -110.58699 | 36772 ft | 486 kts | 111° |
| 2026-05-06 00:41 | 42.15932 | -110.51783 | 36782 ft | 486 kts | 110° |
| 2026-05-06 00:41 | 42.13066 | -110.43520 | 36812 ft | 486 kts | 111° |
| 2026-05-06 00:42 | 42.10211 | -110.35311 | 36794 ft | 486 kts | 111° |
| 2026-05-06 00:42 | 42.07328 | -110.27053 | 36785 ft | 487 kts | 111° |
| 2026-05-06 00:43 | 42.04438 | -110.18795 | 36791 ft | 488 kts | 111° |
| 2026-05-06 00:43 | 42.01542 | -110.10533 | 36777 ft | 488 kts | 112° |
| 2026-05-06 00:44 | 41.98634 | -110.02289 | 36808 ft | 487 kts | 112° |
| 2026-05-06 00:44 | 41.95726 | -109.94061 | 36798 ft | 487 kts | 112° |
| 2026-05-06 00:45 | 41.92819 | -109.85835 | 36828 ft | 487 kts | 112° |
| 2026-05-06 00:45 | 41.89902 | -109.77627 | 36858 ft | 487 kts | 113° |
| 2026-05-06 00:46 | 41.86982 | -109.69423 | 36805 ft | 486 kts | 114° |
| 2026-05-06 00:46 | 41.84062 | -109.61238 | 36853 ft | 486 kts | 114° |
| 2026-05-06 00:47 | 41.81137 | -109.53071 | 36845 ft | 485 kts | 114° |
| 2026-05-06 00:47 | 41.78210 | -109.44908 | 36914 ft | 485 kts | 114° |
| 2026-05-06 00:48 | 41.75272 | -109.36755 | 36917 ft | 485 kts | 114° |
| 2026-05-06 00:48 | 41.72349 | -109.28674 | 36957 ft | 485 kts | 114° |
| 2026-05-06 00:49 | 41.69398 | -109.20546 | 36994 ft | 485 kts | 114° |
| 2026-05-06 00:49 | 41.66443 | -109.12427 | 37014 ft | 484 kts | 114° |
| 2026-05-06 00:50 | 41.63493 | -109.04319 | 37017 ft | 485 kts | 115° |
| 2026-05-06 00:50 | 41.60532 | -108.96200 | 36990 ft | 486 kts | 115° |
| 2026-05-06 00:51 | 41.57562 | -108.88073 | 36980 ft | 486 kts | 115° |
| 2026-05-06 00:51 | 41.54580 | -108.79966 | 36967 ft | 486 kts | 115° |
| 2026-05-06 00:52 | 41.51520 | -108.71686 | 36900 ft | 489 kts | 116° |
| 2026-05-06 00:52 | 41.45488 | -108.55379 | 36903 ft | 491 kts | 116° |
| 2026-05-06 00:53 | 41.39359 | -108.38929 | 36889 ft | 507 kts | 116° |
| 2026-05-06 00:53 | 41.34412 | -108.21074 | 36903 ft | 518 kts | 107° |
| 2026-05-06 00:54 | 41.29926 | -108.02836 | 36873 ft | 518 kts | 107° |
| 2026-05-06 00:54 | 41.25423 | -107.84602 | 36840 ft | 518 kts | 107° |
| 2026-05-06 00:55 | 41.20898 | -107.66405 | 36916 ft | 522 kts | 107° |
| 2026-05-06 00:55 | 41.16299 | -107.48113 | 36989 ft | 523 kts | 107° |
| 2026-05-06 00:56 | 41.11676 | -107.29808 | 36955 ft | 523 kts | 108° |
| 2026-05-06 00:56 | 41.08851 | -107.18713 | 36932 ft | 523 kts | 108° |
| 2026-05-06 00:57 | 41.06509 | -107.09577 | 36905 ft | 523 kts | 108° |
| 2026-05-06 00:57 | 41.04171 | -107.00451 | 36905 ft | 522 kts | 109° |
| 2026-05-06 00:58 | 41.01830 | -106.91335 | 36895 ft | 522 kts | 109° |
| 2026-05-06 00:58 | 40.99484 | -106.82233 | 36922 ft | 522 kts | 109° |
| 2026-05-06 00:59 | 40.97122 | -106.73138 | 36948 ft | 523 kts | 109° |
| 2026-05-06 00:59 | 40.94740 | -106.64052 | 36971 ft | 523 kts | 110° |
| 2026-05-06 01:00 | 40.92367 | -106.54967 | 36998 ft | 523 kts | 110° |
| 2026-05-06 01:00 | 40.89997 | -106.45883 | 37021 ft | 523 kts | 110° |
| 2026-05-06 01:01 | 40.87627 | -106.36850 | 36508 ft | 513 kts | 110° |
| 2026-05-06 01:01 | 40.86453 | -106.32406 | 35446 ft | 512 kts | 110° |
| 2026-05-06 01:01 | 40.85276 | -106.27968 | 34382 ft | 513 kts | 109° |
| 2026-05-06 01:01 | 40.83971 | -106.23589 | 33247 ft | 511 kts | 116° |
| 2026-05-06 01:02 | 40.82464 | -106.19390 | 32485 ft | 501 kts | 117° |
| 2026-05-06 01:02 | 40.80991 | -106.15249 | 31623 ft | 496 kts | 117° |
| 2026-05-06 01:02 | 40.79544 | -106.11151 | 30812 ft | 489 kts | 118° |
| 2026-05-06 01:02 | 40.78103 | -106.07059 | 30016 ft | 482 kts | 118° |
| 2026-05-06 01:03 | 40.76702 | -106.03090 | 28998 ft | 472 kts | 119° |
| 2026-05-06 01:03 | 40.75328 | -105.99212 | 28235 ft | 458 kts | 120° |
| 2026-05-06 01:03 | 40.73980 | -105.95428 | 27639 ft | 456 kts | 120° |
| 2026-05-06 01:03 | 40.72633 | -105.91660 | 27093 ft | 453 kts | 120° |
| 2026-05-06 01:04 | 40.71292 | -105.87911 | 26688 ft | 449 kts | 120° |
| 2026-05-06 01:04 | 40.69948 | -105.84175 | 26397 ft | 452 kts | 120° |
| 2026-05-06 01:04 | 40.68598 | -105.80430 | 26061 ft | 451 kts | 120° |
| 2026-05-06 01:04 | 40.67255 | -105.76705 | 25739 ft | 448 kts | 119° |
| 2026-05-06 01:05 | 40.65919 | -105.73004 | 25418 ft | 446 kts | 119° |
| 2026-05-06 01:05 | 40.64590 | -105.69327 | 25096 ft | 444 kts | 119° |
| 2026-05-06 01:05 | 40.63264 | -105.65659 | 24625 ft | 443 kts | 119° |
| 2026-05-06 01:05 | 40.61943 | -105.62007 | 24129 ft | 441 kts | 119° |
| 2026-05-06 01:06 | 40.60625 | -105.58367 | 23589 ft | 440 kts | 119° |
| 2026-05-06 01:06 | 40.59310 | -105.54745 | 23118 ft | 436 kts | 119° |
| 2026-05-06 01:06 | 40.58006 | -105.51147 | 22650 ft | 434 kts | 119° |
| 2026-05-06 01:06 | 40.56721 | -105.47596 | 22412 ft | 424 kts | 119° |
| 2026-05-06 01:07 | 40.55464 | -105.44128 | 22122 ft | 417 kts | 119° |
| 2026-05-06 01:07 | 40.54222 | -105.40718 | 21904 ft | 412 kts | 119° |
| 2026-05-06 01:07 | 40.52975 | -105.37305 | 21343 ft | 413 kts | 119° |
| 2026-05-06 01:07 | 40.51739 | -105.33928 | 20946 ft | 408 kts | 118° |
| 2026-05-06 01:08 | 40.50505 | -105.30561 | 20415 ft | 407 kts | 118° |
| 2026-05-06 01:08 | 40.49284 | -105.27234 | 20013 ft | 401 kts | 119° |
| 2026-05-06 01:08 | 40.48075 | -105.23944 | 19330 ft | 398 kts | 118° |
| 2026-05-06 01:08 | 40.46855 | -105.20752 | 19117 ft | 380 kts | 124° |
| 2026-05-06 01:09 | 40.45351 | -105.18002 | 18796 ft | 364 kts | 136° |
| 2026-05-06 01:09 | 40.43527 | -105.15790 | 18516 ft | 351 kts | 149° |
| 2026-05-06 01:09 | 40.41536 | -105.13952 | 18274 ft | 350 kts | 150° |
| 2026-05-06 01:09 | 40.39547 | -105.12119 | 18004 ft | 349 kts | 150° |
| 2026-05-06 01:10 | 40.37570 | -105.10281 | 17737 ft | 347 kts | 150° |
| 2026-05-06 01:10 | 40.35603 | -105.08449 | 17469 ft | 346 kts | 150° |
| 2026-05-06 01:10 | 40.33655 | -105.06635 | 17187 ft | 342 kts | 150° |
| 2026-05-06 01:10 | 40.31712 | -105.04829 | 16935 ft | 340 kts | 150° |
| 2026-05-06 01:11 | 40.29787 | -105.03044 | 16685 ft | 338 kts | 150° |
| 2026-05-06 01:11 | 40.27869 | -105.01269 | 16428 ft | 336 kts | 150° |
| 2026-05-06 01:11 | 40.25963 | -104.99505 | 16168 ft | 335 kts | 150° |
| 2026-05-06 01:11 | 40.24066 | -104.97750 | 15919 ft | 333 kts | 150° |
| 2026-05-06 01:12 | 40.22816 | -104.96592 | 15748 ft | 332 kts | 150° |
| 2026-05-06 01:12 | 40.20308 | -104.94269 | 15414 ft | 329 kts | 149° |
| 2026-05-06 01:12 | 40.19069 | -104.93128 | 15251 ft | 328 kts | 151° |
| 2026-05-06 01:12 | 40.17088 | -104.91739 | 15074 ft | 319 kts | 162° |
| 2026-05-06 01:13 | 40.15054 | -104.90605 | 15030 ft | 317 kts | 162° |
| 2026-05-06 01:13 | 40.13084 | -104.89500 | 15042 ft | 317 kts | 162° |
| 2026-05-06 01:13 | 40.11056 | -104.88358 | 15032 ft | 317 kts | 162° |
| 2026-05-06 01:13 | 40.09024 | -104.87214 | 15032 ft | 317 kts | 162° |
| 2026-05-06 01:14 | 40.04968 | -104.84931 | 14926 ft | 317 kts | 162° |
| 2026-05-06 01:14 | 40.02945 | -104.83787 | 14699 ft | 316 kts | 161° |
| 2026-05-06 01:14 | 40.00938 | -104.82640 | 14468 ft | 314 kts | 161° |
| 2026-05-06 01:15 | 39.98940 | -104.81496 | 14241 ft | 312 kts | 162° |
| 2026-05-06 01:15 | 39.96894 | -104.80673 | 14008 ft | 304 kts | 175° |
| 2026-05-06 01:15 | 39.94790 | -104.80463 | 13485 ft | 302 kts | 187° |
| 2026-05-06 01:15 | 39.92706 | -104.80550 | 13188 ft | 297 kts | 186° |
| 2026-05-06 01:16 | 39.90640 | -104.80611 | 12787 ft | 296 kts | 185° |
| 2026-05-06 01:16 | 39.88582 | -104.80660 | 12390 ft | 295 kts | 184° |
| 2026-05-06 01:16 | 39.86537 | -104.80706 | 11936 ft | 292 kts | 184° |
| 2026-05-06 01:16 | 39.84503 | -104.80763 | 11359 ft | 285 kts | 183° |
| 2026-05-06 01:17 | 39.82557 | -104.80817 | 11215 ft | 283 kts | 182° |
| 2026-05-06 01:17 | 39.80585 | -104.80863 | 11035 ft | 283 kts | 182° |
| 2026-05-06 01:17 | 39.78617 | -104.80894 | 10673 ft | 282 kts | 181° |
| 2026-05-06 01:17 | 39.76659 | -104.80913 | 10356 ft | 280 kts | 180° |
| 2026-05-06 01:18 | 39.74720 | -104.80929 | 10034 ft | 278 kts | 179° |
| 2026-05-06 01:18 | 39.72789 | -104.80943 | 9639 ft | 278 kts | 179° |
| 2026-05-06 01:18 | 39.70861 | -104.80958 | 9265 ft | 276 kts | 178° |
| 2026-05-06 01:18 | 39.68947 | -104.80971 | 9018 ft | 274 kts | 178° |
| 2026-05-06 01:19 | 39.67022 | -104.80983 | 8995 ft | 278 kts | 178° |
| 2026-05-06 01:19 | 39.65091 | -104.81003 | 9001 ft | 278 kts | 178° |
| 2026-05-06 01:19 | 39.63159 | -104.81021 | 9001 ft | 278 kts | 179° |
| 2026-05-06 01:19 | 39.61213 | -104.81036 | 9003 ft | 279 kts | 178° |
| 2026-05-06 01:20 | 39.59279 | -104.81049 | 9000 ft | 277 kts | 179° |
| 2026-05-06 01:20 | 39.57345 | -104.81062 | 9000 ft | 278 kts | 179° |
| 2026-05-06 01:20 | 39.55410 | -104.81061 | 8997 ft | 278 kts | 175° |
| 2026-05-06 01:20 | 39.53569 | -104.80416 | 9000 ft | 274 kts | 149° |
| 2026-05-06 01:21 | 39.52206 | -104.78787 | 8990 ft | 272 kts | 122° |
| 2026-05-06 01:21 | 39.51581 | -104.76503 | 8998 ft | 272 kts | 95° |
| 2026-05-06 01:21 | 39.51596 | -104.74013 | 9005 ft | 275 kts | 88° |
| 2026-05-06 01:21 | 39.51788 | -104.71554 | 8989 ft | 276 kts | 76° |
| 2026-05-06 01:22 | 39.52650 | -104.69336 | 8988 ft | 279 kts | 54° |
| 2026-05-06 01:22 | 39.54029 | -104.67647 | 8988 ft | 268 kts | 34° |
| 2026-05-06 01:22 | 39.55678 | -104.66657 | 8983 ft | 256 kts | 17° |
| 2026-05-06 01:22 | 39.57404 | -104.66355 | 8987 ft | 246 kts | 1° |
| 2026-05-06 01:23 | 39.59113 | -104.66338 | 8999 ft | 245 kts | 2° |
| 2026-05-06 01:23 | 39.60821 | -104.66319 | 9002 ft | 245 kts | 2° |
| 2026-05-06 01:23 | 39.62518 | -104.66298 | 9022 ft | 240 kts | 1° |
| 2026-05-06 01:23 | 39.64156 | -104.66279 | 8996 ft | 232 kts | 2° |
| 2026-05-06 01:24 | 39.65758 | -104.66260 | 8891 ft | 227 kts | 1° |
| 2026-05-06 01:24 | 39.67264 | -104.66243 | 8619 ft | 206 kts | 2° |
| 2026-05-06 01:24 | 39.68636 | -104.66227 | 8337 ft | 189 kts | 2° |
| 2026-05-06 01:24 | 39.69864 | -104.66214 | 8120 ft | 167 kts | 5° |
| 2026-05-06 01:25 | 39.70994 | -104.66200 | 7884 ft | 159 kts | 5° |
| 2026-05-06 01:25 | 39.72081 | -104.66185 | 7672 ft | 154 kts | 2° |
| 2026-05-06 01:25 | 39.73146 | -104.66172 | 7467 ft | 153 kts | 4° |
| 2026-05-06 01:25 | 39.74200 | -104.66159 | 7264 ft | 151 kts | 5° |
| 2026-05-06 01:26 | 39.75244 | -104.66146 | 7064 ft | 150 kts | 4° |
| 2026-05-06 01:26 | 39.76277 | -104.66134 | 6870 ft | 148 kts | 5° |
| 2026-05-06 01:26 | 39.77300 | -104.66121 | 6696 ft | 146 kts | 3° |
| 2026-05-06 01:26 | 39.78314 | -104.66109 | 6483 ft | 145 kts | 2° |
| 2026-05-06 01:27 | 39.79316 | -104.66097 | 6240 ft | 143 kts | 2° |
| 2026-05-06 01:27 | 39.80304 | -104.66085 | 6015 ft | 142 kts | 1° |
| 2026-05-06 01:27 | 39.81287 | -104.66069 | 5795 ft | 142 kts | 1° |
| 2026-05-06 01:27 | 39.82270 | -104.66078 | 5562 ft | 139 kts | 2° |
| 2026-05-06 01:28 | 39.83229 | -104.66056 | 5449 ft | 136 kts | 3° |
| 2026-05-06 01:28 | 39.84049 | -104.66039 | 5417 ft | 95 kts | 0° |
| 2026-05-06 01:28 | 39.84538 | -104.66036 | 5402 ft | 50 kts | 0° |
| 2026-05-06 01:28 | 39.84765 | -104.66071 | 5403 ft | 30 kts | 340° |
| 2026-05-06 01:29 | 39.84940 | -104.66177 | 5403 ft | 27 kts | 330° |
| 2026-05-06 01:29 | 39.85129 | -104.66241 | 5389 ft | 30 kts | 0° |
| 2026-05-06 01:29 | 39.85343 | -104.66240 | 5392 ft | 31 kts | 0° |
| 2026-05-06 01:29 | 39.85558 | -104.66237 | 5392 ft | 32 kts | 0° |
| 2026-05-06 01:30 | 39.85790 | -104.66235 | 5388 ft | 35 kts | 0° |
| 2026-05-06 01:30 | 39.85965 | -104.66232 | 5388 ft | 10 kts | 358° |
| 2026-05-06 01:30 | 39.86016 | -104.66302 | 5386 ft | 14 kts | 275° |
| 2026-05-06 01:30 | 39.86017 | -104.66456 | 5382 ft | 20 kts | 269° |
| 2026-05-06 01:31 | 39.86066 | -104.66612 | 5378 ft | 17 kts | 291° |
| 2026-05-06 01:31 | 39.86061 | -104.66768 | 5377 ft | 19 kts | 271° |
| 2026-05-06 01:31 | 39.86062 | -104.66952 | 5377 ft | 22 kts | 270° |
| 2026-05-06 01:31 | 39.86064 | -104.67159 | 5375 ft | 24 kts | 270° |
| 2026-05-06 01:32 | 39.86065 | -104.67377 | 5376 ft | 25 kts | 270° |
| 2026-05-06 01:32 | 39.86065 | -104.67590 | 5377 ft | 13 kts | 258° |
| 2026-05-06 01:32 | 39.86005 | -104.67657 | 5378 ft | 11 kts | 188° |
| 2026-05-06 01:32 | 39.85956 | -104.67658 | 5378 ft | 3 kts | 180° |
| 2026-05-06 01:33 | 39.85935 | -104.67659 | 5378 ft | 0 kts | 181° |